Time;durP1;ratioP1;P1;durP2;ratioP2;P2;SDS_P1;SDS_P2;PMS_P1;PMS_P2;Temp;Humidity;BMP_temperature;BMP_pressure;BME280_temperature;BME280_humidity;BME280_pressure;Samples;Min_cycle;Max_cycle;Signal;HPM_P1;HPM_P2
2022/04/08 00:00:57;;;;;;;6.43;0.90;;;5.30;99.90;;;;;;4898451;29;21076;-65
2022/04/08 00:03:26;;;;;;;2.83;0.77;;;5.30;99.90;;;;;;4898592;29;20488;-65
2022/04/08 00:05:54;;;;;;;5.03;1.27;;;5.30;99.90;;;;;;4898401;29;20519;-65
2022/04/08 00:08:22;;;;;;;2.77;0.80;;;5.30;99.90;;;;;;4898292;29;20697;-65
2022/04/08 00:10:51;;;;;;;4.10;0.73;;;5.30;99.90;;;;;;4904966;29;20592;-65
2022/04/08 00:13:19;;;;;;;5.23;0.80;;;5.30;99.90;;;;;;4900409;29;20536;-65
2022/04/08 00:15:47;;;;;;;5.77;1.20;;;5.30;99.90;;;;;;4897848;29;20520;-65
2022/04/08 00:18:16;;;;;;;6.00;1.07;;;5.30;99.90;;;;;;4898112;29;20512;-65
2022/04/08 00:20:44;;;;;;;6.00;1.10;;;5.30;99.90;;;;;;4903390;29;20268;-65
2022/04/08 00:23:13;;;;;;;4.67;1.20;;;5.30;99.90;;;;;;4897918;29;20280;-65
2022/04/08 00:25:41;;;;;;;5.77;1.30;;;5.30;99.90;;;;;;4898207;29;20488;-65
2022/04/08 00:28:09;;;;;;;9.47;1.63;;;5.30;99.90;;;;;;4898822;29;20477;-65
2022/04/08 00:30:38;;;;;;;5.33;1.10;;;5.30;99.90;;;;;;4888458;29;20840;-65
2022/04/08 00:33:06;;;;;;;7.47;1.10;;;5.30;99.90;;;;;;4897291;29;20485;-65
2022/04/08 00:35:36;;;;;;;6.53;1.23;;;5.30;99.90;;;;;;4897409;29;20478;-65
2022/04/08 00:38:04;;;;;;;6.70;1.43;;;5.30;99.90;;;;;;4897670;29;20565;-65
2022/04/08 00:40:33;;;;;;;5.17;1.13;;;5.30;99.90;;;;;;4904590;29;21145;-65
2022/04/08 00:43:11;;;;;;;10.57;1.40;;;5.30;99.90;;;;;;4901776;29;20489;-65
2022/04/08 00:45:39;;;;;;;7.90;1.90;;;5.30;99.90;;;;;;4892877;29;20296;-65
2022/04/08 00:48:08;;;;;;;9.03;1.30;;;5.40;99.90;;;;;;4896805;29;20567;-65
2022/04/08 00:50:39;;;;;;;7.17;1.50;;;5.40;99.90;;;;;;4897130;29;20501;-65
2022/04/08 00:53:08;;;;;;;7.30;1.40;;;5.30;99.90;;;;;;4897542;29;20481;-65
2022/04/08 00:55:38;;;;;;;9.67;1.57;;;5.30;99.90;;;;;;4896837;29;20478;-65
2022/04/08 00:58:06;;;;;;;7.13;1.10;;;5.30;99.90;;;;;;4898269;29;20511;-65
2022/04/08 01:00:36;;;;;;;7.97;1.40;;;5.30;99.90;;;;;;4897070;29;20480;-65
2022/04/08 01:03:06;;;;;;;2.47;0.93;;;5.20;99.90;;;;;;4897809;29;20825;-65
2022/04/08 01:05:34;;;;;;;4.00;1.20;;;5.20;99.90;;;;;;4897103;29;20476;-65
2022/04/08 01:08:05;;;;;;;6.87;1.23;;;5.20;99.90;;;;;;4897471;29;20462;-65
2022/04/08 01:10:33;;;;;;;5.37;1.20;;;5.20;99.90;;;;;;4897122;29;20464;-65
2022/04/08 01:13:02;;;;;;;6.67;1.40;;;5.30;99.90;;;;;;4901449;29;20275;-65
2022/04/08 01:15:31;;;;;;;8.63;1.30;;;5.30;99.90;;;;;;4896817;29;20488;-65
2022/04/08 01:17:59;;;;;;;8.57;1.40;;;5.30;99.90;;;;;;4896872;29;20901;-65
2022/04/08 01:20:27;;;;;;;8.37;1.63;;;5.30;99.90;;;;;;4902453;29;20479;-65
2022/04/08 01:22:55;;;;;;;5.63;1.63;;;5.30;99.90;;;;;;4896814;29;21087;-65
2022/04/08 01:25:25;;;;;;;8.50;1.67;;;5.20;99.90;;;;;;4896946;29;20539;-65
2022/04/08 01:27:53;;;;;;;6.17;1.10;;;5.20;99.90;;;;;;4897511;29;20494;-65
2022/04/08 01:30:21;;;;;;;7.10;1.23;;;5.20;99.90;;;;;;4896366;29;20568;-65
2022/04/08 01:32:49;;;;;;;8.47;1.33;;;5.20;99.90;;;;;;4896548;29;21070;-65
2022/04/08 01:35:18;;;;;;;4.33;1.17;;;5.20;99.90;;;;;;4896409;29;20483;-65
2022/04/08 01:37:46;;;;;;;5.77;1.20;;;5.20;99.90;;;;;;4896528;29;20489;-65
2022/04/08 01:40:14;;;;;;;3.27;0.90;;;5.30;99.90;;;;;;4896604;29;20476;-65
2022/04/08 01:42:44;;;;;;;7.53;1.70;;;5.20;99.90;;;;;;4896392;29;21008;-65
2022/04/08 01:45:12;;;;;;;2.77;1.70;;;5.20;99.90;;;;;;4903787;29;21018;-65
2022/04/08 01:47:40;;;;;;;4.07;1.37;;;5.10;99.90;;;;;;4889428;29;20568;-65
2022/04/08 01:50:09;;;;;;;4.07;1.03;;;5.10;99.90;;;;;;4896734;29;20822;-65
2022/04/08 01:52:37;;;;;;;4.47;1.30;;;5.10;99.90;;;;;;4888699;29;20580;-65
2022/04/08 01:55:06;;;;;;;4.07;0.83;;;5.10;99.90;;;;;;4896460;29;20524;-65
2022/04/08 01:57:34;;;;;;;6.00;1.23;;;5.10;99.90;;;;;;4896864;29;20491;-65
2022/04/08 02:00:13;;;;;;;4.27;1.03;;;5.10;99.90;;;;;;4895984;29;20483;-65
2022/04/08 02:02:41;;;;;;;4.50;1.20;;;5.20;99.90;;;;;;4889290;29;20487;-65
2022/04/08 02:05:10;;;;;;;4.43;1.10;;;5.20;99.90;;;;;;4896416;29;20973;-65
2022/04/08 02:07:38;;;;;;;7.60;1.10;;;5.20;99.90;;;;;;4896217;29;20635;-65
2022/04/08 02:10:07;;;;;;;3.80;1.23;;;5.20;99.90;;;;;;4896291;29;20481;-65
2022/04/08 02:12:35;;;;;;;4.40;0.97;;;5.20;99.90;;;;;;4895688;29;20480;-65
2022/04/08 02:15:05;;;;;;;7.53;1.30;;;5.20;99.90;;;;;;4896137;29;20645;-65
2022/04/08 02:17:34;;;;;;;6.57;1.20;;;5.20;99.90;;;;;;4895833;29;20480;-65
2022/04/08 02:20:04;;;;;;;5.60;1.50;;;5.20;99.90;;;;;;4895772;29;20568;-65
2022/04/08 02:22:34;;;;;;;8.87;1.80;;;5.20;99.90;;;;;;4895712;29;20564;-65
2022/04/08 02:25:02;;;;;;;5.13;1.30;;;5.20;99.90;;;;;;4896108;29;20240;-65
2022/04/08 02:27:32;;;;;;;11.60;1.63;;;5.20;99.90;;;;;;4896465;29;20565;-65
2022/04/08 02:30:00;;;;;;;4.50;1.37;;;5.20;99.90;;;;;;4900876;29;20493;-65
2022/04/08 02:32:30;;;;;;;7.50;1.53;;;5.20;99.90;;;;;;4896543;29;20492;-65
2022/04/08 02:34:58;;;;;;;5.97;1.30;;;5.20;99.90;;;;;;4895709;29;20481;-65
2022/04/08 02:37:26;;;;;;;10.07;1.90;;;5.10;99.90;;;;;;4895618;29;20845;-64
2022/04/08 02:39:54;;;;;;;7.33;1.43;;;5.00;99.90;;;;;;4895612;29;20524;-65
2022/04/08 02:42:22;;;;;;;5.30;1.27;;;4.90;99.90;;;;;;4895071;29;20473;-65
2022/04/08 02:44:50;;;;;;;9.90;1.57;;;4.80;99.90;;;;;;4895576;29;20540;-65
2022/04/08 02:47:18;;;;;;;5.53;0.97;;;4.80;99.90;;;;;;4895579;29;20608;-65
2022/04/08 02:49:48;;;;;;;4.23;1.40;;;4.70;99.90;;;;;;4899081;29;20484;-65
2022/04/08 02:52:16;;;;;;;9.10;1.67;;;4.70;99.90;;;;;;4896791;29;20981;-65
2022/04/08 02:54:44;;;;;;;4.93;1.20;;;4.60;99.90;;;;;;4895389;29;20537;-65
2022/04/08 02:57:12;;;;;;;4.20;0.87;;;4.60;99.90;;;;;;4896233;29;20479;-65
2022/04/08 02:59:40;;;;;;;6.00;0.87;;;4.60;99.90;;;;;;4890940;29;20477;-65
2022/04/08 03:02:08;;;;;;;6.23;1.00;;;4.60;99.90;;;;;;4899207;29;20484;-65
2022/04/08 03:04:36;;;;;;;4.03;0.90;;;4.70;99.90;;;;;;4897892;29;20501;-65
2022/04/08 03:07:06;;;;;;;5.17;1.30;;;4.70;99.90;;;;;;4899904;29;20805;-65
2022/04/08 03:09:36;;;;;;;4.70;1.07;;;4.70;99.90;;;;;;4895106;29;21060;-65
2022/04/08 03:12:05;;;;;;;4.87;1.33;;;4.70;99.90;;;;;;4896743;29;20480;-65
2022/04/08 03:14:33;;;;;;;6.97;1.60;;;4.60;99.90;;;;;;4900815;29;20512;-65
2022/04/08 03:17:01;;;;;;;3.83;0.90;;;4.60;99.90;;;;;;4903260;29;20569;-65
2022/04/08 03:19:30;;;;;;;10.97;1.47;;;4.50;99.90;;;;;;4899734;29;20816;-65
2022/04/08 03:21:58;;;;;;;5.30;1.10;;;4.60;99.90;;;;;;4899079;29;20475;-66
2022/04/08 03:24:27;;;;;;;5.03;1.20;;;4.60;99.90;;;;;;4899173;29;20596;-64
2022/04/08 03:26:56;;;;;;;4.50;1.27;;;4.60;99.90;;;;;;4899721;29;20482;-66
2022/04/08 03:29:24;;;;;;;5.43;1.10;;;4.50;99.90;;;;;;4898971;29;20480;-65
2022/04/08 03:31:52;;;;;;;4.43;1.10;;;4.50;99.90;;;;;;4899104;29;20488;-65
2022/04/08 03:34:20;;;;;;;6.30;1.30;;;4.50;99.90;;;;;;4899117;29;20810;-65
2022/04/08 03:36:49;;;;;;;7.87;1.33;;;4.50;99.90;;;;;;4905058;29;20488;-65
2022/04/08 03:39:17;;;;;;;7.40;1.83;;;4.50;99.90;;;;;;4898832;29;20489;-65
2022/04/08 03:41:47;;;;;;;5.57;1.00;;;4.50;99.90;;;;;;4892132;29;20882;-65
2022/04/08 03:44:15;;;;;;;7.37;1.53;;;4.60;99.90;;;;;;4899009;29;20529;-65
2022/04/08 03:46:46;;;;;;;4.57;0.90;;;4.50;99.90;;;;;;4898647;29;20541;-66
2022/04/08 03:49:15;;;;;;;8.30;1.93;;;4.50;99.90;;;;;;4898776;29;20490;-66
2022/04/08 03:51:43;;;;;;;9.63;1.63;;;4.50;99.90;;;;;;4891567;29;20247;-66
2022/04/08 03:54:18;;;;;;;5.70;1.63;;;4.40;99.90;;;;;;4898513;29;20912;-65
2022/04/08 03:56:48;;;;;;;9.40;1.20;;;4.50;99.90;;;;;;4902177;29;20498;-65
2022/04/08 03:59:16;;;;;;;6.33;1.30;;;4.40;99.90;;;;;;4898530;29;20983;-65
2022/04/08 04:01:44;;;;;;;8.17;1.30;;;4.40;99.90;;;;;;4891642;29;20481;-65
2022/04/08 04:04:13;;;;;;;9.63;1.60;;;4.40;99.90;;;;;;4898619;29;20480;-65
2022/04/08 04:06:41;;;;;;;6.03;1.07;;;4.40;99.90;;;;;;4905347;29;20487;-66
2022/04/08 04:09:09;;;;;;;5.50;1.03;;;4.40;99.90;;;;;;4898637;29;20477;-66
2022/04/08 04:11:37;;;;;;;5.77;1.30;;;4.40;99.90;;;;;;4901909;29;20563;-66
2022/04/08 04:14:07;;;;;;;6.70;1.30;;;4.50;99.90;;;;;;4898406;29;20554;-66
2022/04/08 04:16:35;;;;;;;9.53;1.60;;;4.50;99.90;;;;;;4897873;29;20864;-65
2022/04/08 04:19:04;;;;;;;9.53;1.27;;;4.40;99.90;;;;;;4898059;29;20795;-66
2022/04/08 04:21:32;;;;;;;6.60;1.47;;;4.40;99.90;;;;;;4897763;29;20506;-66
2022/04/08 04:24:01;;;;;;;9.20;2.50;;;4.30;99.90;;;;;;4898449;29;20496;-66
2022/04/08 04:26:29;;;;;;;4.47;1.30;;;4.30;99.90;;;;;;4898079;29;20574;-66
2022/04/08 04:28:57;;;;;;;7.97;1.30;;;4.30;99.90;;;;;;4897908;29;20512;-66
2022/04/08 04:31:26;;;;;;;3.83;1.40;;;4.30;99.90;;;;;;4897744;29;20472;-66
2022/04/08 04:33:55;;;;;;;7.50;1.47;;;4.30;99.90;;;;;;4897606;29;21081;-65
2022/04/08 04:36:23;;;;;;;6.77;1.20;;;4.30;99.90;;;;;;4904653;29;20469;-66
2022/04/08 04:38:51;;;;;;;7.30;1.50;;;4.30;99.90;;;;;;4896811;29;20495;-66
2022/04/08 04:41:20;;;;;;;9.87;1.60;;;4.30;99.90;;;;;;4895608;29;21005;-65
2022/04/08 04:43:48;;;;;;;9.67;1.73;;;4.30;99.90;;;;;;4897384;29;20981;-65
2022/04/08 04:46:16;;;;;;;8.13;1.73;;;4.20;99.90;;;;;;4904299;29;20482;-66
2022/04/08 04:48:47;;;;;;;7.77;1.60;;;4.20;99.90;;;;;;4897485;29;20559;-65
2022/04/08 04:51:16;;;;;;;8.97;1.47;;;4.30;99.90;;;;;;4904174;29;20563;-65
2022/04/08 04:53:44;;;;;;;9.13;1.40;;;4.30;99.90;;;;;;4897293;29;20678;-66
2022/04/08 04:56:12;;;;;;;9.43;1.97;;;4.30;99.90;;;;;;4898663;29;20497;-66
2022/04/08 04:58:40;;;;;;;9.80;1.60;;;4.30;99.90;;;;;;4890183;29;20484;-66
2022/04/08 05:01:08;;;;;;;5.80;1.53;;;4.20;99.90;;;;;;4904619;29;20483;-66
2022/04/08 05:03:41;;;;;;;8.57;1.77;;;4.20;99.90;;;;;;4897482;29;20486;-66
2022/04/08 05:06:10;;;;;;;9.43;1.40;;;4.20;99.90;;;;;;4897861;29;20478;-66
2022/04/08 05:08:39;;;;;;;7.37;1.53;;;4.20;99.90;;;;;;4886954;29;20481;-66
2022/04/08 05:11:07;;;;;;;13.33;1.83;;;4.30;99.90;;;;;;4900376;29;20499;-66
2022/04/08 05:13:35;;;;;;;10.13;2.00;;;4.30;99.90;;;;;;4894413;29;20474;-66
2022/04/08 05:16:03;;;;;;;11.57;1.67;;;4.20;99.90;;;;;;4896787;29;20509;-66
2022/04/08 05:18:32;;;;;;;6.87;1.60;;;4.30;99.90;;;;;;4895942;29;20470;-65
2022/04/08 05:21:00;;;;;;;8.07;1.47;;;4.30;99.90;;;;;;4896456;29;20569;-66
2022/04/08 05:23:29;;;;;;;9.57;1.60;;;4.20;99.90;;;;;;4895623;29;20508;-66
2022/04/08 05:25:58;;;;;;;7.30;1.50;;;4.20;99.90;;;;;;4896936;29;20492;-65
2022/04/08 05:28:26;;;;;;;13.27;2.03;;;4.30;99.90;;;;;;4896524;29;20571;-66
2022/04/08 05:30:54;;;;;;;9.00;1.67;;;4.30;99.90;;;;;;4895421;29;20897;-66
2022/04/08 05:33:22;;;;;;;9.70;1.83;;;4.40;99.90;;;;;;4894075;29;20493;-66
2022/04/08 05:35:51;;;;;;;11.57;1.80;;;4.40;99.90;;;;;;4897008;29;20527;-66
2022/04/08 05:38:19;;;;;;;8.83;1.63;;;4.50;99.90;;;;;;4895746;29;20483;-66
2022/04/08 05:40:49;;;;;;;9.67;1.97;;;4.50;99.90;;;;;;4896664;29;20996;-66
2022/04/08 05:43:18;;;;;;;9.27;1.90;;;4.50;99.90;;;;;;4895399;29;20474;-66
2022/04/08 05:45:46;;;;;;;11.17;2.30;;;4.60;99.90;;;;;;4896022;29;20496;-66
2022/04/08 05:48:14;;;;;;;6.30;1.90;;;4.60;99.90;;;;;;4896003;29;20474;-65
2022/04/08 05:50:42;;;;;;;9.70;1.87;;;4.70;99.90;;;;;;4895754;29;20477;-66
2022/04/08 05:53:10;;;;;;;8.13;2.00;;;4.80;99.90;;;;;;4892644;29;20997;-66
2022/04/08 05:56:02;;;;;;;9.63;1.80;;;4.90;99.90;;;;;;4895855;29;20489;-65
2022/04/08 05:58:30;;;;;;;7.77;1.63;;;5.00;99.90;;;;;;4890583;29;20508;-65
2022/04/08 06:00:58;;;;;;;8.80;1.50;;;5.10;99.90;;;;;;4896328;29;20489;-66
2022/04/08 06:03:27;;;;;;;9.50;2.30;;;5.20;99.90;;;;;;4894351;29;20883;-65
2022/04/08 06:05:56;;;;;;;5.80;1.50;;;5.30;99.90;;;;;;4892497;29;20510;-65
2022/04/08 06:08:24;;;;;;;5.17;1.37;;;5.30;99.90;;;;;;4892907;29;20564;-65
2022/04/08 06:10:52;;;;;;;5.50;1.50;;;5.30;99.90;;;;;;4890996;29;20499;-65
2022/04/08 06:13:24;;;;;;;8.80;1.40;;;5.40;99.90;;;;;;4892967;29;20478;-65
2022/04/08 06:15:53;;;;;;;5.93;1.43;;;5.40;99.90;;;;;;4895651;29;20489;-65
2022/04/08 06:18:21;;;;;;;4.83;1.57;;;5.50;99.90;;;;;;4895960;29;20516;-65
2022/04/08 06:20:50;;;;;;;4.63;1.30;;;5.60;99.90;;;;;;4895805;29;20478;-65
2022/04/08 06:23:18;;;;;;;4.10;1.20;;;5.50;99.90;;;;;;4895544;29;20560;-65
2022/04/08 06:25:48;;;;;;;6.13;1.23;;;5.60;99.90;;;;;;4891798;29;20493;-65
2022/04/08 06:28:16;;;;;;;2.93;1.57;;;5.80;99.90;;;;;;4895395;29;20497;-65
2022/04/08 06:30:45;;;;;;;4.00;1.07;;;5.90;99.90;;;;;;4892567;29;20488;-65
2022/04/08 06:33:13;;;;;;;6.90;1.80;;;6.00;99.90;;;;;;4889936;29;20537;-65
2022/04/08 06:35:41;;;;;;;5.30;1.37;;;6.20;99.90;;;;;;4887874;29;20512;-65
2022/04/08 06:38:10;;;;;;;3.33;1.30;;;6.30;99.90;;;;;;4892187;29;20495;-65
2022/04/08 06:40:38;;;;;;;5.57;1.60;;;6.40;99.90;;;;;;4892225;29;20271;-65
2022/04/08 06:43:07;;;;;;;3.63;1.30;;;6.50;99.90;;;;;;4894121;29;20486;-65
2022/04/08 06:45:36;;;;;;;5.83;1.37;;;6.60;99.90;;;;;;4888229;29;20533;-65
2022/04/08 06:48:06;;;;;;;3.17;0.97;;;6.90;99.90;;;;;;4890222;29;20320;-65
2022/04/08 06:50:34;;;;;;;4.13;1.17;;;6.90;99.90;;;;;;4889597;29;20495;-65
2022/04/08 06:53:03;;;;;;;3.60;1.20;;;6.90;99.90;;;;;;4888681;29;20237;-65
2022/04/08 06:55:32;;;;;;;1.37;0.60;;;6.80;99.90;;;;;;4886010;29;20229;-65
2022/04/08 06:58:01;;;;;;;4.87;0.80;;;6.60;99.90;;;;;;4896783;29;20347;-65
2022/04/08 07:00:31;;;;;;;2.50;0.80;;;6.40;99.90;;;;;;4894383;29;20489;-65
2022/04/08 07:03:00;;;;;;;4.73;0.93;;;6.30;99.90;;;;;;4895006;29;20252;-65
2022/04/08 07:05:30;;;;;;;1.47;0.70;;;6.40;99.90;;;;;;4901818;29;20508;-64
2022/04/08 07:07:58;;;;;;;3.83;1.23;;;6.40;99.90;;;;;;4895122;29;20248;-65
2022/04/08 07:10:26;;;;;;;4.83;1.00;;;6.30;99.90;;;;;;4895145;29;20645;-64
2022/04/08 07:12:54;;;;;;;3.17;1.00;;;6.20;99.90;;;;;;4895144;29;20249;-66
2022/04/08 07:15:22;;;;;;;3.40;1.10;;;6.20;99.90;;;;;;4895005;29;20707;-65
2022/04/08 07:17:50;;;;;;;1.47;0.80;;;6.40;99.90;;;;;;4894555;29;20605;-65
2022/04/08 07:20:19;;;;;;;3.87;1.30;;;6.60;99.90;;;;;;4895532;29;20717;-65
2022/04/08 07:22:49;;;;;;;2.27;0.70;;;6.50;99.90;;;;;;4889659;29;20249;-65
2022/04/08 07:25:18;;;;;;;3.33;1.10;;;6.60;99.90;;;;;;4894508;29;20726;-64
2022/04/08 07:27:48;;;;;;;2.80;1.00;;;6.60;99.90;;;;;;4896084;29;20252;-65
2022/04/08 07:30:18;;;;;;;3.10;0.90;;;6.60;99.90;;;;;;4895079;29;20251;-64
2022/04/08 07:32:48;;;;;;;3.83;1.00;;;6.60;99.90;;;;;;4894613;29;20763;-65
2022/04/08 07:35:17;;;;;;;1.90;1.00;;;6.70;99.90;;;;;;4885319;29;20270;-64
2022/04/08 07:37:45;;;;;;;2.50;1.20;;;6.60;99.90;;;;;;4892759;29;20249;-65
2022/04/08 07:40:15;;;;;;;1.20;0.93;;;6.80;99.90;;;;;;4894499;29;20241;-65
2022/04/08 07:42:44;;;;;;;2.83;1.00;;;6.80;99.90;;;;;;4898886;29;20789;-65
2022/04/08 07:45:12;;;;;;;2.67;1.10;;;6.70;99.90;;;;;;4895256;29;20237;-65
2022/04/08 07:47:41;;;;;;;5.90;1.20;;;6.70;99.90;;;;;;4887322;29;20296;-65
2022/04/08 07:50:13;;;;;;;3.17;1.13;;;6.60;99.90;;;;;;4891354;29;20249;-65
2022/04/08 07:52:42;;;;;;;3.40;1.07;;;6.70;99.90;;;;;;4895957;29;20735;-65
2022/04/08 07:55:12;;;;;;;5.43;1.37;;;6.80;99.90;;;;;;4895986;29;20242;-65
2022/04/08 07:57:46;;;;;;;3.53;1.17;;;6.90;99.90;;;;;;4887942;29;20244;-65
2022/04/08 08:00:16;;;;;;;4.13;1.30;;;7.00;99.90;;;;;;4890222;29;20250;-65
2022/04/08 08:02:45;;;;;;;4.47;1.33;;;7.10;99.90;;;;;;4897424;29;20249;-65
2022/04/08 08:05:14;;;;;;;3.23;1.30;;;7.20;99.90;;;;;;4898737;29;20241;-65
2022/04/08 08:07:47;;;;;;;5.17;1.30;;;7.50;99.90;;;;;;4897815;29;20583;-65
2022/04/08 08:10:17;;;;;;;3.07;1.10;;;7.90;99.90;;;;;;4886776;29;20241;-65
2022/04/08 08:12:47;;;;;;;5.53;1.30;;;8.10;99.90;;;;;;4897649;29;20249;-65
2022/04/08 08:15:16;;;;;;;10.23;1.60;;;8.60;99.90;;;;;;4904849;29;20236;-65
2022/04/08 08:17:44;;;;;;;4.23;1.30;;;8.60;99.90;;;;;;4897918;29;20351;-64
2022/04/08 08:20:14;;;;;;;4.13;1.13;;;8.60;99.90;;;;;;4898537;29;20237;-65
2022/04/08 08:22:43;;;;;;;2.83;1.17;;;8.30;99.90;;;;;;4893192;29;20245;-65
2022/04/08 08:25:12;;;;;;;4.03;1.20;;;8.10;99.90;;;;;;4893242;29;20292;-65
2022/04/08 08:27:41;;;;;;;3.73;1.40;;;8.30;99.90;;;;;;4894065;29;20252;-65
2022/04/08 08:30:13;;;;;;;4.93;1.20;;;8.30;99.90;;;;;;4897985;29;21206;-65
2022/04/08 08:32:43;;;;;;;2.87;1.30;;;8.30;99.90;;;;;;4891021;29;20648;-65
2022/04/08 08:35:13;;;;;;;7.77;2.17;;;8.40;99.90;;;;;;4886151;29;20702;-65
2022/04/08 08:37:42;;;;;;;2.67;1.10;;;8.30;99.90;;;;;;4895016;29;20245;-65
2022/04/08 08:40:12;;;;;;;3.30;1.40;;;8.40;99.90;;;;;;4900750;29;20306;-65
2022/04/08 08:42:40;;;;;;;4.17;1.43;;;8.60;99.90;;;;;;4898420;29;20245;-65
2022/04/08 08:45:12;;;;;;;3.83;1.30;;;9.10;99.90;;;;;;4897712;29;20243;-65
2022/04/08 08:47:40;;;;;;;3.17;1.20;;;9.30;99.90;;;;;;4890250;29;20305;-66
2022/04/08 08:50:09;;;;;;;4.20;1.60;;;9.50;99.90;;;;;;4904097;29;20233;-65
2022/04/08 08:52:38;;;;;;;5.80;1.47;;;9.60;99.90;;;;;;4890179;29;20244;-65
2022/04/08 08:55:07;;;;;;;3.83;1.20;;;9.30;99.90;;;;;;4896922;29;20279;-65
2022/04/08 08:57:36;;;;;;;6.13;1.13;;;9.00;99.90;;;;;;4897832;29;20874;-65
2022/04/08 09:00:12;;;;;;;6.33;1.40;;;9.40;99.90;;;;;;4897701;29;20260;-65
2022/04/08 09:02:42;;;;;;;3.90;1.17;;;9.80;99.90;;;;;;4889774;29;20363;-65
2022/04/08 09:05:15;;;;;;;3.43;1.30;;;10.00;99.90;;;;;;4904137;29;20320;-65
2022/04/08 09:07:43;;;;;;;4.87;1.30;;;10.10;99.90;;;;;;4890260;29;20241;-65
2022/04/08 09:10:11;;;;;;;5.03;1.10;;;10.20;99.90;;;;;;4896347;29;20244;-65
2022/04/08 09:12:39;;;;;;;5.20;1.23;;;10.20;99.90;;;;;;4890907;29;20253;-65
2022/04/08 09:15:09;;;;;;;6.63;1.30;;;9.90;99.90;;;;;;4908399;29;20233;-65
2022/04/08 09:17:41;;;;;;;4.83;1.30;;;9.90;99.90;;;;;;4896760;29;20275;-65
2022/04/08 09:20:11;;;;;;;3.67;1.00;;;10.10;99.90;;;;;;4899891;29;20233;-65
2022/04/08 09:22:40;;;;;;;6.17;1.00;;;10.40;99.90;;;;;;4887181;29;20721;-65
2022/04/08 09:25:12;;;;;;;5.30;1.37;;;10.70;99.90;;;;;;4888933;29;20238;-65
2022/04/08 09:27:41;;;;;;;3.97;0.90;;;10.60;99.90;;;;;;4892342;29;20245;-65
2022/04/08 09:30:10;;;;;;;5.27;1.47;;;10.30;99.90;;;;;;4888543;29;20244;-65
2022/04/08 09:32:38;;;;;;;4.03;1.20;;;10.10;99.90;;;;;;4893469;29;20739;-65
2022/04/08 09:35:07;;;;;;;3.43;1.13;;;10.00;99.90;;;;;;4903012;29;20701;-65
2022/04/08 09:37:43;;;;;;;4.90;1.20;;;10.30;99.90;;;;;;4896502;29;20283;-65
2022/04/08 09:40:12;;;;;;;3.60;1.23;;;10.20;99.90;;;;;;4895443;29;20253;-65
2022/04/08 09:42:48;;;;;;;2.97;1.03;;;10.50;99.90;;;;;;4894544;29;20250;-65
2022/04/08 09:45:30;;;;;;;3.07;1.30;;;10.40;99.90;;;;;;4889295;29;20241;-65
2022/04/08 09:47:59;;;;;;;4.10;1.37;;;10.40;99.90;;;;;;4890103;29;20633;-65
2022/04/08 09:50:27;;;;;;;2.83;1.10;;;10.90;99.90;;;;;;4888505;29;20233;-65
2022/04/08 09:52:58;;;;;;;3.90;1.33;;;11.30;99.90;;;;;;4890893;29;20268;-65
2022/04/08 09:55:29;;;;;;;2.40;1.10;;;11.50;99.90;;;;;;4888351;29;20737;-65
2022/04/08 09:57:58;;;;;;;4.60;0.90;;;11.00;99.90;;;;;;4889225;29;20317;-65
2022/04/08 10:00:28;;;;;;;2.77;1.13;;;10.80;99.90;;;;;;4894401;29;20240;-65
2022/04/08 10:02:59;;;;;;;3.83;1.00;;;11.00;99.90;;;;;;4889182;29;20703;-65
2022/04/08 10:05:27;;;;;;;4.00;1.00;;;11.10;99.90;;;;;;4891058;29;20234;-65
2022/04/08 10:07:58;;;;;;;3.13;1.00;;;10.90;99.90;;;;;;4889988;29;20267;-65
2022/04/08 10:10:32;;;;;;;5.40;1.77;;;11.20;99.90;;;;;;4890166;29;20270;-64
2022/04/08 10:13:22;;;;;;;3.43;1.00;;;11.50;99.90;;;;;;4890577;29;20414;-65
2022/04/08 10:16:02;;;;;;;2.67;0.90;;;12.10;99.90;;;;;;4888010;29;20274;-65
2022/04/08 10:18:35;;;;;;;3.80;1.30;;;12.20;99.90;;;;;;4891364;29;20239;-65
2022/04/08 10:21:03;;;;;;;3.57;1.20;;;11.80;99.90;;;;;;4888041;29;20244;-65
2022/04/08 10:23:38;;;;;;;4.53;1.03;;;11.70;99.90;;;;;;4884256;29;20848;-65
2022/04/08 10:26:17;;;;;;;3.80;1.00;;;11.60;99.90;;;;;;4888516;29;20241;-65
2022/04/08 10:28:45;;;;;;;2.77;0.90;;;11.50;99.90;;;;;;4890347;29;20245;-65
2022/04/08 10:31:19;;;;;;;5.13;1.10;;;11.40;99.90;;;;;;4889499;29;20247;-65
2022/04/08 10:33:50;;;;;;;2.30;0.90;;;11.40;99.90;;;;;;4889698;29;20685;-65
2022/04/08 10:36:18;;;;;;;3.53;1.00;;;11.60;99.90;;;;;;4890526;29;20250;-65
2022/04/08 10:38:48;;;;;;;4.07;1.27;;;12.20;99.90;;;;;;4885344;29;20245;-65
2022/04/08 10:41:16;;;;;;;3.00;0.90;;;12.50;99.90;;;;;;4892834;29;20249;-65
2022/04/08 10:43:46;;;;;;;4.83;1.13;;;12.40;99.90;;;;;;4889298;29;20587;-65
2022/04/08 10:46:16;;;;;;;3.83;1.00;;;12.30;99.90;;;;;;4888194;29;20290;-65
2022/04/08 10:48:44;;;;;;;2.33;0.90;;;12.10;99.90;;;;;;4887472;29;20299;-65
2022/04/08 10:51:15;;;;;;;3.03;1.00;;;12.30;99.90;;;;;;4892184;29;20235;-65
2022/04/08 10:53:44;;;;;;;3.27;1.03;;;11.90;99.90;;;;;;4887812;29;20295;-65
2022/04/08 10:56:15;;;;;;;3.10;1.00;;;11.80;99.90;;;;;;4889185;29;20259;-65
2022/04/08 10:58:45;;;;;;;1.87;1.03;;;11.40;99.90;;;;;;4889395;29;20700;-65
2022/04/08 11:01:18;;;;;;;1.70;0.80;;;11.40;99.90;;;;;;4886634;29;20250;-65
2022/04/08 11:03:54;;;;;;;4.43;1.47;;;11.10;99.90;;;;;;4885281;29;20243;-64
2022/04/08 11:06:24;;;;;;;2.23;0.80;;;11.00;99.90;;;;;;4889659;29;20696;-65
2022/04/08 11:08:53;;;;;;;6.10;0.90;;;11.50;99.90;;;;;;4887376;29;20250;-65
2022/04/08 11:11:30;;;;;;;3.00;1.00;;;11.30;99.90;;;;;;4892945;29;20266;-65
2022/04/08 11:13:59;;;;;;;3.30;1.07;;;11.40;99.90;;;;;;4895087;29;20247;-65
2022/04/08 11:16:33;;;;;;;3.63;1.03;;;12.30;99.90;;;;;;4894887;29;20247;-65
2022/04/08 11:19:01;;;;;;;5.03;1.17;;;12.70;99.90;;;;;;4898863;29;20234;-65
2022/04/08 11:21:30;;;;;;;2.73;1.33;;;11.80;99.90;;;;;;4889024;29;20577;-65
2022/04/08 11:23:59;;;;;;;2.77;1.00;;;11.60;99.90;;;;;;4888230;29;20758;-65
2022/04/08 11:26:31;;;;;;;4.23;1.60;;;11.70;99.90;;;;;;4891627;29;20242;-64
2022/04/08 11:29:11;;;;;;;3.10;1.20;;;11.40;99.90;;;;;;4890448;29;20255;-65
2022/04/08 11:31:39;;;;;;;4.53;1.13;;;11.50;99.90;;;;;;4894280;29;20250;-65
2022/04/08 11:34:08;;;;;;;3.23;1.23;;;11.90;99.90;;;;;;4897820;29;20262;-65
2022/04/08 11:36:37;;;;;;;2.77;1.00;;;12.00;99.90;;;;;;4898226;29;20234;-65
2022/04/08 11:39:06;;;;;;;5.00;1.40;;;12.00;99.90;;;;;;4898869;29;20643;-65
2022/04/08 11:41:37;;;;;;;3.43;1.30;;;12.20;99.90;;;;;;4901912;29;20240;-65
2022/04/08 11:44:07;;;;;;;6.13;1.33;;;12.00;99.90;;;;;;4898550;29;20249;-65
2022/04/08 11:46:36;;;;;;;4.83;1.43;;;11.60;99.90;;;;;;4905226;29;20335;-65
2022/04/08 11:49:05;;;;;;;5.07;0.97;;;11.20;99.90;;;;;;4896531;29;20266;-65
2022/04/08 11:51:33;;;;;;;2.70;1.03;;;10.50;99.90;;;;;;4896606;29;20243;-65
2022/04/08 11:54:04;;;;;;;2.07;0.87;;;9.70;99.90;;;;;;4891010;29;20589;-64
2022/04/08 11:56:32;;;;;;;2.73;0.70;;;8.80;99.90;;;;;;4893147;29;20726;-64
2022/04/08 11:59:04;;;;;;;3.20;1.00;;;8.50;99.90;;;;;;4893102;29;20233;-65
2022/04/08 12:01:33;;;;;;;2.03;0.77;;;8.50;99.90;;;;;;4889077;29;20246;-65
2022/04/08 12:04:04;;;;;;;2.47;0.70;;;8.70;99.90;;;;;;4894604;29;20305;-65
2022/04/08 12:06:39;;;;;;;2.07;0.80;;;8.80;99.90;;;;;;4892609;29;20238;-65
2022/04/08 12:09:09;;;;;;;2.80;0.80;;;8.80;99.90;;;;;;4887159;29;20245;-65
2022/04/08 12:11:39;;;;;;;2.07;0.77;;;8.90;99.90;;;;;;4886928;29;20259;-65
2022/04/08 12:14:09;;;;;;;2.37;0.73;;;9.00;99.90;;;;;;4890101;29;20248;-65
2022/04/08 12:16:38;;;;;;;2.73;0.60;;;9.30;99.90;;;;;;4887525;29;20268;-65
2022/04/08 12:19:08;;;;;;;2.73;0.60;;;9.40;99.90;;;;;;4886793;29;20245;-65
2022/04/08 12:21:56;;;;;;;1.80;0.90;;;9.60;99.90;;;;;;4886371;29;20242;-65
2022/04/08 12:24:28;;;;;;;3.87;0.73;;;9.80;99.90;;;;;;4887055;29;20252;-65
2022/04/08 12:26:56;;;;;;;3.00;0.87;;;9.70;99.90;;;;;;4889497;29;20617;-65
2022/04/08 12:29:30;;;;;;;3.53;0.70;;;9.70;99.90;;;;;;4887179;29;20247;-65
2022/04/08 12:31:58;;;;;;;3.13;0.83;;;9.80;99.90;;;;;;4888194;29;20240;-65
2022/04/08 12:34:27;;;;;;;3.90;0.80;;;9.80;99.90;;;;;;4890413;29;20331;-65
2022/04/08 12:36:55;;;;;;;10.93;1.63;;;9.70;99.90;;;;;;4890046;29;20252;-65
2022/04/08 12:39:23;;;;;;;3.50;0.90;;;9.80;99.90;;;;;;4886786;29;20256;-65
2022/04/08 12:41:51;;;;;;;3.33;1.33;;;9.70;99.90;;;;;;4884882;29;20910;-65
2022/04/08 12:44:21;;;;;;;4.33;0.90;;;9.90;99.90;;;;;;4885924;29;20797;-65
2022/04/08 12:46:51;;;;;;;2.87;1.00;;;10.10;99.90;;;;;;4886451;29;20250;-65
2022/04/08 12:49:19;;;;;;;4.43;1.03;;;10.30;99.90;;;;;;4886238;29;20253;-65
2022/04/08 12:51:48;;;;;;;3.00;1.30;;;10.50;99.90;;;;;;4886228;29;20253;-64
2022/04/08 12:54:16;;;;;;;4.23;1.20;;;10.70;99.90;;;;;;4888003;29;20320;-65
2022/04/08 12:56:45;;;;;;;2.60;1.47;;;10.70;99.90;;;;;;4888960;29;20255;-65
2022/04/08 12:59:13;;;;;;;2.37;0.97;;;10.60;99.90;;;;;;4884095;29;20252;-65
2022/04/08 13:01:42;;;;;;;2.80;1.17;;;10.50;99.90;;;;;;4885079;29;20257;-65
2022/04/08 13:04:11;;;;;;;2.13;1.10;;;10.40;99.90;;;;;;4893926;29;20264;-65
2022/04/08 13:06:40;;;;;;;3.78;1.30;;;10.30;99.90;;;;;;4891129;29;20534;-64